Time;durP1;ratioP1;P1;durP2;ratioP2;P2;SDS_P1;SDS_P2;PMS_P1;PMS_P2;Temp;Humidity;BMP_temperature;BMP_pressure;BME280_temperature;BME280_humidity;BME280_pressure;Samples;Min_cycle;Max_cycle;Signal;HPM_P1;HPM_P2
2023/08/21 12:10:00;;;;;;;6.70;3.40;;;;;;;37.60;23.84;100697.73;1887078;76;26769;-46
2023/08/21 12:12:27;;;;;;;7.15;3.08;;;;;;;37.47;25.16;100698.02;1858459;77;25363;-47
2023/08/21 12:14:53;;;;;;;4.45;3.10;;;;;;;37.41;24.16;100699.98;1857955;77;27474;-46
2023/08/21 12:17:24;;;;;;;3.98;3.10;;;;;;;37.33;24.92;100691.77;1857960;77;25692;-46
2023/08/21 12:19:50;;;;;;;8.10;4.17;;;;;;;37.36;24.85;100697.21;1788188;80;30664;-45
2023/08/21 12:22:16;;;;;;;5.25;3.40;;;;;;;37.45;24.95;100696.97;1820329;78;25440;-45
2023/08/21 12:24:42;;;;;;;5.08;4.33;;;;;;;37.45;24.88;100694.15;1788084;80;25395;-46
2023/08/21 12:27:08;;;;;;;3.67;2.80;;;;;;;37.50;25.08;100684.36;1820328;78;27539;-48
2023/08/21 12:29:35;;;;;;;7.72;3.90;;;;;;;37.56;25.65;100685.84;1787879;80;25541;-46
2023/08/21 12:32:04;;;;;;;4.80;4.28;;;;;;;37.76;25.05;100676.70;1820304;78;25372;-46
2023/08/21 12:34:31;;;;;;;13.03;12.13;;;;;;;37.70;24.29;100689.94;1787997;80;25531;-46
2023/08/21 12:36:57;;;;;;;21.70;20.10;;;;;;;37.35;24.45;100699.11;1820323;78;25572;-46
2023/08/21 12:39:27;;;;;;;58.50;55.40;;;;;;;37.15;24.51;100690.67;1788176;80;27505;-45
2023/08/21 12:41:53;;;;;;;90.75;84.72;;;;;;;37.17;24.97;100688.14;1820404;78;25812;-45
2023/08/21 12:44:19;;;;;;;59.98;56.80;;;;;;;37.31;24.98;100689.44;1788087;80;25452;-46
2023/08/21 12:46:45;;;;;;;55.80;52.90;;;;;;;37.40;24.83;100688.55;1820254;78;25950;-47
2023/08/21 12:49:11;;;;;;;68.00;63.80;;;;;;;37.42;24.64;100688.84;1788020;80;25464;-44
2023/08/21 12:51:38;;;;;;;61.18;57.62;;;;;;;37.33;24.96;100683.31;1820335;78;27492;-45
2023/08/21 12:54:06;;;;;;;59.30;56.30;;;;;;;37.31;25.53;100684.44;1788038;80;31439;-44
2023/08/21 12:56:32;;;;;;;57.17;54.15;;;;;;;37.16;25.47;100680.16;1820274;78;25581;-44
2023/08/21 12:58:59;;;;;;;56.92;54.03;;;;;;;36.91;25.13;100682.27;1787872;80;25609;-44
2023/08/21 13:01:28;;;;;;;56.35;53.60;;;;;;;36.63;24.77;100684.53;1820440;78;25564;-45
2023/08/21 13:03:54;;;;;;;57.60;53.98;;;;;;;36.27;26.01;100675.09;1788211;80;27407;-45
2023/08/21 13:06:20;;;;;;;58.00;54.83;;;;;;;36.42;26.21;100671.70;1820313;78;25543;-44
2023/08/21 13:08:46;;;;;;;58.75;55.65;;;;;;;36.39;26.08;100666.25;1787883;80;25626;-45
2023/08/21 13:11:16;;;;;;;58.23;55.38;;;;;;;36.26;26.12;100669.30;1820380;78;25669;-44
2023/08/21 13:13:42;;;;;;;60.20;57.00;;;;;;;36.17;25.94;100666.52;1788065;80;25545;-46
2023/08/21 13:16:09;;;;;;;57.40;54.42;;;;;;;35.99;25.77;100663.17;1820191;78;27517;-47
2023/08/21 13:18:35;;;;;;;55.95;53.05;;;;;;;35.85;25.87;100664.66;1787873;80;25436;-44
2023/08/21 13:21:01;;;;;;;72.22;68.07;;;;;;;35.94;26.20;100661.78;1786913;78;25614;-44
2023/08/21 13:23:31;;;;;;;58.02;55.03;;;;;;;30.48;25.97;99777.77;1787371;80;25550;-45
2023/08/21 13:25:59;;;;;;;44.33;42.15;;;;;;;36.13;25.46;100656.82;1819750;78;25400;-46
2023/08/21 13:28:28;;;;;;;56.00;53.00;;;;;;;36.17;25.24;100663.07;1787536;80;27672;-47
2023/08/21 13:30:54;;;;;;;40.25;38.00;;;;;;;36.14;24.92;100659.80;1819611;78;25365;-47
2023/08/21 13:33:22;;;;;;;14.05;13.20;;;;;;;31.69;24.54;99979.24;1787393;80;25474;-43
2023/08/21 13:35:49;;;;;;;58.02;54.93;;;;;;;35.86;24.40;100667.60;1819394;78;25464;-42
2023/08/21 13:38:16;;;;;;;57.13;54.27;;;;;;;35.77;24.94;100659.98;1786425;80;25512;-42
2023/08/21 13:40:43;;;;;;;57.43;54.42;;;;;;;35.87;25.05;100657.28;1818890;78;27351;-42
2023/08/21 13:43:12;;;;;;;5.30;1.77;;;;;;;35.89;24.91;100658.22;1787276;80;25532;-44
2023/08/21 13:45:44;;;;;;;3.30;2.30;;;;;;;36.06;24.88;100660.80;1819753;78;25424;-43
2023/08/21 13:48:10;;;;;;;3.08;2.20;;;;;;;36.08;24.55;100658.89;1786090;80;25795;-42
2023/08/21 13:50:37;;;;;;;3.67;3.10;;;;;;;35.79;24.66;100661.72;1819745;78;25443;-42
2023/08/21 13:53:04;;;;;;;5.95;3.60;;;;;;;35.53;24.72;100659.91;1787394;80;29588;-43
2023/08/21 13:55:32;;;;;;;4.87;4.58;;;;;;;35.48;24.97;100657.10;1819545;78;25571;-45
2023/08/21 13:57:59;;;;;;;23.22;21.95;;;;;;;35.44;25.37;100655.09;1787669;80;25360;-46
2023/08/21 14:00:28;;;;;;;17.07;16.07;;;;;;;35.30;25.92;100658.59;1819594;78;26388;-47
2023/08/21 14:02:55;;;;;;;54.18;51.48;;;;;;;35.02;25.74;100660.63;1787382;80;25276;-46
2023/08/21 14:05:22;;;;;;;56.13;53.35;;;;;;;34.61;26.85;100667.80;1819664;78;28414;-46
2023/08/21 14:07:49;;;;;;;6.28;4.58;;;;;;;34.36;27.75;100664.05;1787292;80;25457;-46
2023/08/21 14:10:16;;;;;;;23.30;22.07;;;;;;;34.26;27.82;100660.27;1824615;78;25462;-46
2023/08/21 14:12:44;;;;;;;18.07;17.00;;;;;;;34.17;28.84;100664.58;1774113;80;25411;-46
2023/08/21 14:15:11;;;;;;;59.27;56.37;;;;;;;34.08;29.53;100661.77;1761863;81;25427;-46
2023/08/21 14:17:38;;;;;;;57.53;54.73;;;;;;;33.98;28.47;100654.56;1760290;81;27984;-45
2023/08/21 14:20:11;;;;;;;57.15;54.35;;;;;;;33.78;27.95;100658.56;1793071;80;25563;-46
2023/08/21 14:22:40;;;;;;;58.08;55.08;;;;;;;33.62;28.58;100657.36;1793683;80;25314;-46
2023/08/21 14:25:10;;;;;;;57.78;54.88;;;;;;;33.46;28.50;100648.58;1761844;81;25570;-45
2023/08/21 14:27:37;;;;;;;59.80;56.63;;;;;;;33.24;28.81;100661.22;1793253;80;25374;-44
2023/08/21 14:30:09;;;;;;;58.52;55.73;;;;;;;33.06;29.23;100662.61;1793189;80;27974;-43
2023/08/21 14:32:37;;;;;;;57.85;54.73;;;;;;;32.88;29.07;100659.07;1793080;80;25776;-43
2023/08/21 14:35:08;;;;;;;59.27;56.13;;;;;;;32.72;29.50;100652.24;1793166;80;25283;-45
2023/08/21 14:37:39;;;;;;;59.83;56.68;;;;;;;32.67;29.41;100659.82;1793237;80;25520;-43
2023/08/21 14:40:10;;;;;;;58.05;55.25;;;;;;;32.61;29.38;100655.42;1793308;80;25453;-43
2023/08/21 14:42:39;;;;;;;59.48;56.48;;;;;;;32.51;29.58;100650.95;1793214;80;27407;-42
2023/08/21 14:45:10;;;;;;;59.63;56.53;;;;;;;32.44;29.55;100659.57;1793242;80;25735;-43
2023/08/21 14:47:38;;;;;;;59.60;56.60;;;;;;;32.36;29.74;100658.42;1763981;80;25551;-42
2023/08/21 14:50:09;;;;;;;59.10;56.13;;;;;;;32.29;29.36;100658.67;1793083;80;27291;-43
2023/08/21 14:53:10;;;;;;;59.53;56.42;;;;;;;32.25;29.94;100664.20;1793296;80;25297;-43
2023/08/21 14:55:37;;;;;;;59.53;56.42;;;;;;;32.17;29.62;100658.86;1793269;80;27880;-43
2023/08/21 14:58:07;;;;;;;62.62;59.45;;;;;;;32.02;29.81;100659.12;1793117;80;25292;-42
2023/08/21 15:00:33;;;;;;;61.02;57.85;;;;;;;31.83;29.96;100654.71;1793291;80;25537;-43
2023/08/21 15:03:01;;;;;;;59.95;56.85;;;;;;;31.71;30.04;100661.09;1793095;80;25509;-43
2023/08/21 15:05:28;;;;;;;59.70;56.50;;;;;;;31.63;30.12;100658.34;1793196;80;25359;-42
2023/08/21 15:07:55;;;;;;;82.47;77.58;;;;;;;31.59;30.27;100657.68;1793262;80;27501;-42
2023/08/21 15:10:24;;;;;;;60.83;57.33;;;;;;;;;;1793014;80;25356;-42
2023/08/21 15:12:51;;;;;;;5.45;5.25;;;;;;;;;;1793119;80;25327;-41
2023/08/21 15:15:20;;;;;;;45.17;42.58;;;;;;;;;;1763283;80;25520;-42
2023/08/21 15:17:48;;;;;;;33.40;31.65;;;;;;;;;;1793229;80;25350;-42
2023/08/21 15:20:16;;;;;;;62.73;59.33;;;;;;;;;;1778384;80;28073;-41
2023/08/21 15:22:42;;;;;;;25.82;24.35;;;;;;;;;;1793195;80;25276;-41
2023/08/21 15:25:11;;;;;;;8.93;8.53;;;;;;;;;;1793255;80;25427;-43
2023/08/21 15:27:40;;;;;;;8.43;8.03;;;;;;;;;;1793198;80;27442;-44
2023/08/21 15:30:10;;;;;;;14.28;13.45;;;;;;;;;;1793205;80;25284;-43
2023/08/21 16:28:33;;;;;;;4.42;2.40;;;;;;;29.93;33.40;100655.62;1887101;76;25272;-43
2023/08/21 16:30:59;;;;;;;27.15;25.72;;;;;;;29.68;33.54;100654.76;1858107;77;25348;-42
2023/08/21 16:33:26;;;;;;;63.40;60.08;;;;;;;29.53;33.51;100652.30;1858122;77;27472;-42
2023/08/21 16:35:52;;;;;;;72.97;67.78;;;;;;;29.39;33.89;100650.61;1858014;77;25797;-42
2023/08/21 16:38:18;;;;;;;77.17;70.70;;;;;;;29.27;34.25;100651.86;1788092;80;25423;-42
2023/08/21 16:40:44;;;;;;;64.82;61.23;;;;;;;29.16;34.67;100654.84;1820399;78;25554;-41
2023/08/21 16:43:10;;;;;;;66.65;62.80;;;;;;;29.04;34.77;100653.48;1788161;80;25457;-43
2023/08/21 16:45:37;;;;;;;64.82;61.23;;;;;;;28.92;35.13;100649.33;1820398;78;27572;-42
2023/08/21 16:48:04;;;;;;;13.53;12.35;;;;;;;28.81;35.07;100652.33;1757075;80;25712;-43
2023/08/21 16:50:30;;;;;;;19.40;8.60;;;;;;;28.69;35.20;100645.99;1820418;78;25377;-43
2023/08/21 16:52:56;;;;;;;69.55;65.08;;;;;;;28.57;35.59;100651.57;1788054;80;25751;-44
2023/08/21 16:55:23;;;;;;;75.37;69.95;;;;;;;28.45;35.91;100650.73;1788084;80;25612;-43
2023/08/21 16:57:49;;;;;;;78.33;71.80;;;;;;;28.36;36.04;100649.89;1820373;78;28138;-42
2023/08/21 17:00:16;;;;;;;78.97;72.65;;;;;;;28.27;36.06;100646.87;1787949;80;25593;-44
2023/08/21 17:02:42;;;;;;;71.37;65.85;;;;;;;28.16;36.33;100642.86;1820367;78;25392;-44
2023/08/21 17:05:09;;;;;;;52.30;45.90;;;;;;;28.07;36.61;100642.02;1788027;80;25388;-46
2023/08/21 17:07:38;;;;;;;70.32;65.80;;;;;;;28.01;36.92;100642.91;1788024;80;25433;-46
2023/08/21 17:10:09;;;;;;;76.37;69.77;;;;;;;27.91;37.08;100639.85;1788066;80;28085;-43
2023/08/21 17:12:35;;;;;;;19.98;9.55;;;;;;;27.82;37.49;100645.74;1787987;80;25372;-42
2023/08/21 17:15:03;;;;;;;76.00;70.20;;;;;;;27.73;37.60;100649.83;1820332;78;25455;-43
2023/08/21 17:17:30;;;;;;;36.10;32.80;;;;;;;27.64;37.84;100646.02;1785710;77;25558;-40
2023/08/21 17:19:57;;;;;;;17.82;10.10;;;;;;;27.57;38.16;100645.50;1782179;80;25615;-42
2023/08/21 17:22:24;;;;;;;25.60;11.60;;;;;;;27.47;38.30;100645.05;1782190;80;27427;-43
2023/08/21 17:24:53;;;;;;;67.60;63.33;;;;;;;27.37;38.54;100649.53;1783479;80;25673;-43
2023/08/21 17:27:19;;;;;;;86.40;80.47;;;;;;;27.25;38.93;100642.50;1783611;80;25406;-45
2023/08/21 17:29:47;;;;;;;13.90;12.85;;;;;;;27.17;39.48;100640.40;1783600;80;25419;-42
2023/08/21 17:33:11;;;;;;;74.60;68.90;;;;;;;27.12;40.02;100649.80;1905609;74;26173;-43
2023/08/21 17:35:38;;;;;;;76.67;71.60;;;;;;;26.89;40.12;100641.52;1860196;77;25435;-43
2023/08/21 17:38:06;;;;;;;78.02;72.87;;;;;;;26.74;40.23;100636.72;1871392;75;27464;-43
2023/08/21 17:40:33;;;;;;;78.55;72.25;;;;;;;26.24;40.39;100577.55;1897913;75;25356;-43
2023/08/21 17:43:00;;;;;;;75.45;69.87;;;;;;;26.44;40.58;100643.72;1897246;75;25350;-43
2023/08/21 17:45:28;;;;;;;74.60;69.17;;;;;;;26.33;40.71;100642.23;1897027;74;25391;-43
2023/08/21 17:47:55;;;;;;;83.22;76.20;;;;;;;26.21;40.83;100650.44;1897044;75;25370;-47
2023/08/21 17:52:45;;;;;;;76.65;70.60;;;;;;;26.07;41.74;100660.43;1925095;74;32796;-43
2023/08/21 17:58:01;;;;;;;81.37;75.47;;;;;;;25.81;42.05;100654.03;1868314;76;32823;-42
2023/08/21 18:00:29;;;;;;;13.48;12.82;;;;;;;;;;1831025;78;25439;-46
2023/08/21 18:02:55;;;;;;;12.03;11.53;;;;;;;;;;1823434;78;27398;-43
